createdAt,value
2018-12-11T00:01:19.765Z,77.64
2018-12-11T00:03:50.030Z,78.25
2018-12-11T00:06:20.064Z,76.61
2018-12-11T00:08:53.473Z,75.88
2018-12-11T00:11:23.957Z,73.97
2018-12-11T00:13:56.438Z,73.63
2018-12-11T00:16:26.698Z,75.21
2018-12-11T00:18:56.082Z,75.91
2018-12-11T00:21:25.301Z,75.82
2018-12-11T00:23:55.769Z,75.87
2018-12-11T00:26:24.328Z,75.65
2018-12-11T00:28:54.422Z,73.20
2018-12-11T00:31:25.082Z,74.32
2018-12-11T00:33:54.489Z,74.16
2018-12-11T00:36:24.062Z,72.15
2018-12-11T00:38:54.409Z,74.68
2018-12-11T00:41:23.327Z,76.15
2018-12-11T00:43:55.046Z,73.84
2018-12-11T00:46:26.057Z,73.45
2018-12-11T00:48:56.533Z,72.12
2018-12-11T00:51:31.920Z,72.29
2018-12-11T00:54:02.298Z,71.05
2018-12-11T00:56:31.502Z,71.71
2018-12-11T00:59:00.653Z,70.59
2018-12-11T01:01:30.334Z,71.22
2018-12-11T01:04:00.299Z,71.01
2018-12-11T01:06:29.376Z,73.02
2018-12-11T01:08:59.005Z,72.61
2018-12-11T01:11:28.054Z,72.44
2018-12-11T01:13:57.495Z,69.54
2018-12-11T01:16:27.785Z,70.43
2018-12-11T01:18:56.618Z,70.22
2018-12-11T01:21:26.793Z,69.69
2018-12-11T01:23:57.301Z,71.23
2018-12-11T01:26:27.324Z,71.23
2018-12-11T01:28:58.756Z,70.71
2018-12-11T01:31:28.204Z,70.78
2018-12-11T01:33:57.934Z,70.91
2018-12-11T01:36:27.237Z,69.90
2018-12-11T01:38:57.740Z,71.11
2018-12-11T01:41:33.719Z,69.88
2018-12-11T01:44:02.222Z,70.12
2018-12-11T01:46:30.817Z,69.05
2018-12-11T01:48:59.648Z,69.54
2018-12-11T01:51:30.377Z,69.57
2018-12-11T01:53:59.686Z,70.03
2018-12-11T01:56:30.130Z,69.56
2018-12-11T01:59:00.623Z,67.37
2018-12-11T02:01:33.758Z,66.56
2018-12-11T02:04:02.864Z,66.23
2018-12-11T02:06:32.775Z,65.33
2018-12-11T02:09:02.825Z,64.24
2018-12-11T02:11:33.659Z,65.01
2018-12-11T02:14:04.033Z,63.41
2018-12-11T02:16:32.551Z,63.45
2018-12-11T02:19:01.223Z,63.17
2018-12-11T02:21:30.775Z,63.82
2018-12-11T02:24:01.129Z,64.89
2018-12-11T02:26:30.505Z,64.04
2018-12-11T02:29:00.718Z,65.05
2018-12-11T02:31:30.554Z,64.73
2018-12-11T02:33:59.603Z,65.12
2018-12-11T02:36:29.171Z,65.72
2018-12-11T02:38:59.240Z,64.34
2018-12-11T02:41:29.290Z,66.88
2018-12-11T02:43:59.856Z,67.44
2018-12-11T02:46:28.742Z,65.89
2018-12-11T02:48:57.395Z,66.35
2018-12-11T02:51:28.151Z,69.15
2018-12-11T02:53:59.137Z,68.62
2018-12-11T02:56:29.938Z,68.91
2018-12-11T02:58:59.611Z,69.32
2018-12-11T03:01:29.811Z,67.20
2018-12-11T03:03:59.408Z,68.53
2018-12-11T03:06:29.046Z,68.44
2018-12-11T03:08:59.872Z,67.54
2018-12-11T03:11:28.457Z,68.44
2018-12-11T03:13:57.705Z,67.96
2018-12-11T03:16:27.531Z,68.86
2018-12-11T03:19:00.648Z,67.63
2018-12-11T03:21:30.806Z,68.90
2018-12-11T03:24:01.025Z,68.61
2018-12-11T03:26:31.305Z,68.47
2018-12-11T03:28:59.852Z,68.07
2018-12-11T03:31:30.493Z,68.56
2018-12-11T03:34:00.223Z,69.26
2018-12-11T03:36:30.240Z,68.20
2018-12-11T03:38:59.655Z,69.67
2018-12-11T03:41:31.913Z,69.73
2018-12-11T03:44:00.470Z,69.50
2018-12-11T03:46:29.325Z,70.64
2018-12-11T03:48:58.603Z,70.73
2018-12-11T03:51:27.887Z,69.76
2018-12-11T03:53:57.656Z,70.76
2018-12-11T03:56:28.521Z,71.24
2018-12-11T03:58:57.119Z,70.98
2018-12-11T04:01:27.124Z,70.02
2018-12-11T04:03:57.265Z,70.98
2018-12-11T04:06:26.262Z,71.15
2018-12-11T04:08:55.415Z,72.51
2018-12-11T04:11:26.144Z,72.19
2018-12-11T04:13:55.499Z,70.58
2018-12-11T04:16:25.285Z,71.43
2018-12-11T04:18:55.635Z,72.17
2018-12-11T04:21:24.841Z,72.40
2018-12-11T04:23:54.759Z,70.73
2018-12-11T04:26:26.285Z,69.09
2018-12-11T04:28:56.467Z,71.31
2018-12-11T04:31:26.027Z,71.96
2018-12-11T04:34:00.379Z,70.68
2018-12-11T04:36:32.003Z,69.58
2018-12-11T04:39:02.305Z,68.47
2018-12-11T04:41:33.681Z,69.82
2018-12-11T04:44:07.800Z,71.40
2018-12-11T04:46:37.351Z,70.04
2018-12-11T04:49:06.472Z,70.20
2018-12-11T04:51:35.871Z,70.76
2018-12-11T04:54:07.430Z,69.67
2018-12-11T04:56:38.256Z,71.32
2018-12-11T04:59:07.554Z,71.92
2018-12-11T05:01:38.124Z,72.30
2018-12-11T05:04:07.269Z,72.96
2018-12-11T05:06:36.191Z,72.43
2018-12-11T05:09:06.986Z,71.59
2018-12-11T05:11:37.318Z,71.80
2018-12-11T05:14:08.519Z,71.33
2018-12-11T05:16:39.553Z,71.71
2018-12-11T05:19:09.070Z,71.76
2018-12-11T05:21:38.643Z,71.59
2018-12-11T05:24:08.882Z,72.06
2018-12-11T05:26:39.398Z,71.74
2018-12-11T05:29:08.660Z,71.69
2018-12-11T05:31:39.963Z,70.23
2018-12-11T05:34:10.194Z,70.34
2018-12-11T05:36:40.543Z,71.71
2018-12-11T05:39:10.722Z,70.15
2018-12-11T05:41:41.318Z,72.11
2018-12-11T05:44:12.778Z,72.80
2018-12-11T05:46:42.900Z,73.16
2018-12-11T05:49:13.569Z,70.90
2018-12-11T05:51:42.662Z,71.49
2018-12-11T05:54:12.519Z,71.27
2018-12-11T05:56:56.544Z,71.05
2018-12-11T05:59:25.274Z,70.38
2018-12-11T06:01:55.472Z,69.87
2018-12-11T06:04:25.297Z,70.74
2018-12-11T06:06:54.542Z,70.78
2018-12-11T06:09:24.270Z,73.31
2018-12-11T06:11:53.037Z,72.63
2018-12-11T06:14:22.454Z,72.08
2018-12-11T06:16:51.731Z,71.76
2018-12-11T06:19:21.179Z,71.35
2018-12-11T06:21:51.092Z,72.33
2018-12-11T06:24:23.953Z,72.97
2018-12-11T06:26:53.347Z,71.21
2018-12-11T06:29:22.085Z,71.06
2018-12-11T06:31:50.699Z,70.88
2018-12-11T06:34:21.803Z,71.07
2018-12-11T06:36:53.208Z,70.71
2018-12-11T06:39:25.185Z,69.99
2018-12-11T06:41:55.208Z,71.58
2018-12-11T06:44:25.869Z,71.71
2018-12-11T06:46:55.910Z,70.97
2018-12-11T06:49:26.479Z,72.76
2018-12-11T06:51:55.932Z,71.62
2018-12-11T06:54:25.482Z,72.95
2018-12-11T06:56:56.145Z,72.63
2018-12-11T06:59:26.624Z,71.55
2018-12-11T07:01:56.465Z,72.80
2018-12-11T07:04:26.926Z,71.95
2018-12-11T07:06:55.445Z,71.32
2018-12-11T07:09:24.334Z,70.02
2018-12-11T07:11:54.145Z,69.82
2018-12-11T07:14:24.011Z,69.62
2018-12-11T07:16:53.221Z,72.47
2018-12-11T07:19:23.941Z,72.61
2018-12-11T07:21:55.190Z,72.35
2018-12-11T07:24:24.734Z,73.15
2018-12-11T07:26:53.702Z,71.77
2018-12-11T07:29:23.840Z,73.37
2018-12-11T07:31:56.466Z,72.62
2018-12-11T07:34:25.995Z,72.33
2018-12-11T07:36:56.078Z,73.24
2018-12-11T07:39:25.711Z,73.32
2018-12-11T07:41:55.481Z,72.68
2018-12-11T07:44:24.765Z,74.50
2018-12-11T07:46:53.382Z,72.80
2018-12-11T07:49:23.458Z,73.15
2018-12-11T07:51:53.102Z,73.32
2018-12-11T07:54:22.549Z,71.82
2018-12-11T07:56:52.621Z,71.25
2018-12-11T07:59:24.129Z,71.95
2018-12-11T08:01:54.767Z,72.70
2018-12-11T08:04:24.735Z,72.15
2018-12-11T08:06:54.829Z,72.59
2018-12-11T08:09:24.832Z,72.38
2018-12-11T08:11:54.790Z,72.25
2018-12-11T08:14:23.924Z,73.00
2018-12-11T08:16:55.332Z,73.44
2018-12-11T08:19:55.164Z,73.61
2018-12-11T08:22:34.457Z,72.95
2018-12-11T08:25:03.514Z,72.99
2018-12-11T08:27:32.885Z,73.40
2018-12-11T08:30:01.701Z,73.49
2018-12-11T08:32:30.534Z,71.26
2018-12-11T08:35:02.296Z,73.98
2018-12-11T08:37:32.208Z,74.86
2018-12-11T08:40:02.682Z,75.92
2018-12-11T08:42:31.781Z,76.73
2018-12-11T08:45:03.425Z,77.14
2018-12-11T08:47:33.908Z,76.71
2018-12-11T08:50:03.890Z,78.13
2018-12-11T08:52:34.138Z,77.87
2018-12-11T08:55:05.083Z,76.54
2018-12-11T08:57:34.278Z,75.44
2018-12-11T09:00:04.271Z,75.87
2018-12-11T09:02:33.876Z,76.43
2018-12-11T09:05:03.232Z,76.37
2018-12-11T09:07:32.394Z,75.66
2018-12-11T09:10:05.763Z,76.25
2018-12-11T09:12:35.830Z,76.58
2018-12-11T09:15:05.826Z,76.39
2018-12-11T09:17:36.752Z,75.61
2018-12-11T09:20:05.683Z,75.36
2018-12-11T09:22:34.428Z,75.08
2018-12-11T09:25:04.777Z,75.09
2018-12-11T09:27:35.103Z,72.59
2018-12-11T09:30:04.541Z,73.28
2018-12-11T09:32:33.967Z,73.76
2018-12-11T09:35:02.605Z,73.57
2018-12-11T09:37:32.175Z,74.43
2018-12-11T09:40:01.864Z,72.38
2018-12-11T09:42:34.950Z,74.29
2018-12-11T09:45:06.538Z,71.41
2018-12-11T09:47:38.462Z,71.33
2018-12-11T09:50:09.743Z,72.21
2018-12-11T09:52:40.190Z,73.32
2018-12-11T09:55:08.857Z,72.10
2018-12-11T09:57:38.276Z,73.45
2018-12-11T10:00:09.073Z,72.28
2018-12-11T10:02:45.754Z,74.14
2018-12-11T10:05:15.743Z,73.26
2018-12-11T10:07:47.714Z,72.68
2018-12-11T10:10:16.932Z,72.20
2018-12-11T10:12:47.426Z,72.68
2018-12-11T10:15:17.166Z,72.65
2018-12-11T10:17:49.288Z,72.34
2018-12-11T10:20:20.905Z,72.33
2018-12-11T10:22:49.840Z,70.56
2018-12-11T10:25:19.042Z,71.66
2018-12-11T10:27:47.878Z,70.65
2018-12-11T10:30:16.749Z,71.89
2018-12-11T10:32:49.722Z,72.21
2018-12-11T10:35:19.444Z,72.24
2018-12-11T10:37:48.270Z,72.48
2018-12-11T10:40:17.902Z,72.29
2018-12-11T10:42:49.740Z,72.99
2018-12-11T10:45:20.226Z,70.62
2018-12-11T10:47:50.264Z,71.52
2018-12-11T10:50:18.957Z,71.63
2018-12-11T10:52:49.302Z,71.99
2018-12-11T10:55:18.633Z,70.95
2018-12-11T10:57:48.442Z,69.51
2018-12-11T11:00:24.690Z,69.30
2018-12-11T11:03:00.442Z,68.79
2018-12-11T11:05:30.659Z,70.10
2018-12-11T11:08:02.587Z,70.01
2018-12-11T11:10:31.265Z,69.85
2018-12-11T11:13:00.303Z,69.38
2018-12-11T11:15:29.821Z,68.45
2018-12-11T11:17:58.852Z,69.19
2018-12-11T11:20:31.788Z,67.76
2018-12-11T11:23:02.047Z,69.41
2018-12-11T11:25:30.966Z,69.98
2018-12-11T11:28:01.623Z,69.74
2018-12-11T11:30:31.276Z,71.10
2018-12-11T11:33:01.184Z,70.79
2018-12-11T11:35:31.408Z,70.10
2018-12-11T11:38:01.069Z,70.34
2018-12-11T11:40:29.596Z,68.32
2018-12-11T11:43:00.427Z,69.15
2018-12-11T11:45:31.679Z,69.63
2018-12-11T11:48:01.563Z,66.34
2018-12-11T11:50:32.386Z,67.62
2018-12-11T11:53:02.490Z,68.42
2018-12-11T11:55:32.371Z,68.27
2018-12-11T11:58:02.396Z,66.18
2018-12-11T12:00:31.470Z,66.44
2018-12-11T12:03:03.026Z,65.98
2018-12-11T12:05:34.010Z,64.15
2018-12-11T12:08:04.219Z,63.87
2018-12-11T12:10:35.754Z,64.16
2018-12-11T12:13:04.829Z,63.82
2018-12-11T12:15:35.794Z,64.63
2018-12-11T12:18:04.321Z,64.17
2018-12-11T12:20:34.879Z,67.21
2018-12-11T12:23:04.531Z,65.56
2018-12-11T12:25:34.743Z,66.94
2018-12-11T12:28:04.626Z,66.87
2018-12-11T12:30:34.994Z,67.03
2018-12-11T12:33:04.824Z,68.32
2018-12-11T12:35:36.295Z,68.27
2018-12-11T12:38:06.048Z,67.42
2018-12-11T12:40:35.138Z,67.06
2018-12-11T12:43:04.459Z,69.99
2018-12-11T12:45:34.274Z,67.84
2018-12-11T12:48:05.442Z,67.38
2018-12-11T12:50:35.207Z,67.33
2018-12-11T12:53:03.806Z,68.58
2018-12-11T12:55:34.356Z,66.64
2018-12-11T12:58:03.955Z,67.69
2018-12-11T13:00:33.539Z,67.93
2018-12-11T13:03:04.239Z,66.24
2018-12-11T13:05:33.582Z,65.60
2018-12-11T13:08:02.685Z,66.56
2018-12-11T13:10:33.770Z,66.28
2018-12-11T13:13:02.706Z,69.36
2018-12-11T13:15:32.252Z,68.04
2018-12-11T13:18:02.417Z,66.84
2018-12-11T13:20:31.866Z,67.46
2018-12-11T13:23:01.083Z,66.43
2018-12-11T13:28:09.030Z,66.57
2018-12-11T13:30:40.578Z,65.51
2018-12-11T13:33:10.420Z,63.83
2018-12-11T13:35:44.641Z,63.31
2018-12-11T13:38:15.348Z,65.94
2018-12-11T13:40:47.405Z,66.34
2018-12-11T13:43:18.063Z,67.43
2018-12-11T13:45:47.601Z,67.65
2018-12-11T13:48:23.280Z,67.53
2018-12-11T13:50:49.981Z,67.38
2018-12-11T13:53:18.964Z,67.77
2018-12-11T13:55:48.950Z,68.43
2018-12-11T13:58:19.636Z,67.63
2018-12-11T14:00:49.509Z,65.38
2018-12-11T14:03:33.156Z,65.12
2018-12-11T14:06:02.787Z,65.25
2018-12-11T14:08:32.589Z,64.88
2018-12-11T14:11:02.706Z,65.86
2018-12-11T14:13:31.771Z,67.07
2018-12-11T14:16:01.565Z,65.86
2018-12-11T14:18:37.623Z,66.89
2018-12-11T14:21:07.035Z,66.26
2018-12-11T14:23:36.846Z,66.36
2018-12-11T14:26:08.106Z,67.46
2018-12-11T14:28:36.673Z,67.63
2018-12-11T14:31:05.246Z,68.23
2018-12-11T14:33:34.934Z,68.07
2018-12-11T14:36:04.218Z,67.47
2018-12-11T14:38:36.078Z,68.20
2018-12-11T14:41:05.886Z,68.23
2018-12-11T14:43:37.590Z,66.97
2018-12-11T14:46:08.997Z,67.51
2018-12-11T14:48:37.575Z,65.95
2018-12-11T14:51:06.125Z,65.43
2018-12-11T14:53:35.310Z,67.28
2018-12-11T14:56:09.730Z,67.31
2018-12-11T14:58:38.572Z,65.71
2018-12-11T15:01:08.176Z,65.97
2018-12-11T15:03:39.132Z,67.41
2018-12-11T15:06:16.737Z,67.89
2018-12-11T15:08:45.810Z,67.17
2018-12-11T15:11:16.190Z,66.82
2018-12-11T15:13:45.209Z,67.95
2018-12-11T15:16:15.019Z,66.61
2018-12-11T15:18:44.330Z,65.23
2018-12-11T15:21:14.023Z,66.22
2018-12-11T15:23:46.107Z,65.80
2018-12-11T15:26:15.613Z,64.29
2018-12-11T15:28:45.314Z,64.45
2018-12-11T15:31:18.154Z,64.33
2018-12-11T15:33:47.656Z,64.64
2018-12-11T15:36:19.275Z,64.16
2018-12-11T15:38:49.089Z,64.08
2018-12-11T15:41:17.971Z,64.60
2018-12-11T15:43:46.940Z,64.86
2018-12-11T15:46:18.126Z,66.03
2018-12-11T15:48:47.838Z,65.95
2018-12-11T15:51:19.094Z,66.12
2018-12-11T15:53:47.898Z,65.99
2018-12-11T15:56:17.250Z,65.58
2018-12-11T15:58:47.819Z,64.73
2018-12-11T16:01:16.597Z,65.98
2018-12-11T16:03:46.002Z,63.71
2018-12-11T16:06:15.127Z,62.76
2018-12-11T16:08:44.628Z,62.57
2018-12-11T16:11:13.434Z,61.16
2018-12-11T16:13:42.198Z,62.88
2018-12-11T16:16:11.605Z,62.24
2018-12-11T16:18:42.056Z,63.73
2018-12-11T16:21:10.679Z,61.58
2018-12-11T16:23:41.566Z,62.22
2018-12-11T16:26:10.582Z,61.62
2018-12-11T16:28:55.658Z,59.69
2018-12-11T16:31:27.246Z,61.32
2018-12-11T16:33:55.914Z,61.10
2018-12-11T16:36:25.406Z,62.49
2018-12-11T16:38:54.360Z,64.70
2018-12-11T16:41:22.887Z,64.17
2018-12-11T16:43:56.122Z,63.46
2018-12-11T16:46:27.304Z,63.65
2018-12-11T16:48:57.031Z,64.93
2018-12-11T16:51:26.490Z,65.42
2018-12-11T16:53:57.967Z,66.22
2018-12-11T16:56:27.096Z,65.95
2018-12-11T16:58:59.378Z,64.78
2018-12-11T17:01:29.410Z,65.52
2018-12-11T17:03:59.772Z,63.52
2018-12-11T17:06:30.006Z,63.90
2018-12-11T17:08:58.758Z,64.64
2018-12-11T17:11:27.879Z,65.03
2018-12-11T17:13:57.563Z,64.10
2018-12-11T17:16:27.841Z,64.37
2018-12-11T17:18:57.062Z,65.37
2018-12-11T17:21:28.987Z,63.72
2018-12-11T17:24:00.539Z,63.81
2018-12-11T17:26:30.416Z,64.32
2018-12-11T17:29:01.045Z,63.38
2018-12-11T17:31:31.078Z,63.89
2018-12-11T17:33:59.736Z,64.14
2018-12-11T17:36:33.682Z,64.74
2018-12-11T17:39:03.070Z,64.92
2018-12-11T17:41:32.676Z,65.00
2018-12-11T17:44:01.404Z,63.10
2018-12-11T17:46:32.106Z,63.69
2018-12-11T17:49:01.080Z,62.64
2018-12-11T17:51:30.178Z,63.25
2018-12-11T17:53:58.670Z,63.21
2018-12-11T17:56:28.500Z,63.69
2018-12-11T17:58:57.821Z,64.16
2018-12-11T18:01:29.514Z,63.65
2018-12-11T18:03:58.878Z,63.05
2018-12-11T18:06:28.748Z,63.40
2018-12-11T18:08:59.099Z,65.39
2018-12-11T18:11:28.671Z,63.71
2018-12-11T18:13:57.184Z,64.62
2018-12-11T18:19:01.417Z,64.96
2018-12-11T18:21:31.012Z,65.51
2018-12-11T18:23:59.969Z,65.84
2018-12-11T18:26:30.091Z,63.12
2018-12-11T18:28:59.528Z,61.37
2018-12-11T18:31:30.070Z,61.46
2018-12-11T18:33:59.693Z,61.94
2018-12-11T18:36:28.331Z,60.95
2018-12-11T18:38:58.318Z,62.84
2018-12-11T18:41:28.851Z,62.81
2018-12-11T18:43:59.039Z,63.47
2018-12-11T18:46:28.468Z,64.16
2018-12-11T18:48:59.882Z,66.37
2018-12-11T18:51:28.691Z,68.74
2018-12-11T18:53:58.148Z,65.85
2018-12-11T18:56:29.036Z,65.99
2018-12-11T18:58:59.507Z,67.30
2018-12-11T19:01:28.893Z,67.43
2018-12-11T19:03:59.419Z,67.90
2018-12-11T19:06:28.942Z,70.40
2018-12-11T19:08:57.503Z,70.51
2018-12-11T19:11:27.645Z,71.94
2018-12-11T19:13:57.214Z,74.84
2018-12-11T19:16:27.752Z,74.42
2018-12-11T19:18:57.824Z,71.84
2018-12-11T19:21:26.955Z,69.30
2018-12-11T19:24:05.162Z,71.04
2018-12-11T19:26:36.267Z,70.93
2018-12-11T19:29:08.052Z,72.10
2018-12-11T19:31:37.658Z,70.26
2018-12-11T19:34:07.070Z,71.01
2018-12-11T19:36:35.774Z,70.24
2018-12-11T19:39:23.894Z,70.33
2018-12-11T19:41:54.126Z,70.60
2018-12-11T19:44:23.419Z,70.91
2018-12-11T19:46:53.634Z,71.84
2018-12-11T19:49:24.835Z,70.33
2018-12-11T19:51:53.878Z,71.28
2018-12-11T19:54:24.040Z,70.43
2018-12-11T19:56:53.214Z,72.83
2018-12-11T19:59:52.794Z,69.45
2018-12-11T20:02:23.869Z,68.41
2018-12-11T20:04:54.084Z,69.05
2018-12-11T20:07:23.007Z,71.54
2018-12-11T20:09:57.548Z,70.63
2018-12-11T20:12:27.593Z,71.65
2018-12-11T20:14:56.131Z,73.21
2018-12-11T20:17:25.703Z,71.66
2018-12-11T20:19:54.806Z,72.46
2018-12-11T20:22:23.889Z,73.53
2018-12-11T20:24:53.398Z,73.63
2018-12-11T20:27:22.669Z,72.44
2018-12-11T20:29:53.080Z,69.90
2018-12-11T20:32:23.123Z,71.42
2018-12-11T20:34:52.574Z,73.38
2018-12-11T20:37:22.207Z,71.92
2018-12-11T20:39:52.711Z,71.18
2018-12-11T20:42:35.823Z,70.21
2018-12-11T20:45:06.382Z,69.87
2018-12-11T20:47:37.244Z,70.39
2018-12-11T20:50:07.578Z,71.36
2018-12-11T20:52:36.666Z,70.43
2018-12-11T20:55:06.321Z,70.05
2018-12-11T20:57:36.303Z,71.26
2018-12-11T21:00:07.306Z,69.91
2018-12-11T21:02:37.527Z,69.50
2018-12-11T21:05:06.893Z,70.45
2018-12-11T21:07:37.509Z,71.68
2018-12-11T21:10:13.126Z,73.18
2018-12-11T21:12:42.817Z,70.03
2018-12-11T21:15:12.781Z,69.05
2018-12-11T21:17:41.300Z,70.29
2018-12-11T21:20:11.344Z,69.58
2018-12-11T21:22:41.468Z,69.86
2018-12-11T21:25:13.320Z,68.86
2018-12-11T21:27:43.890Z,67.39
2018-12-11T21:30:12.529Z,69.02
2018-12-11T21:32:42.214Z,69.47
2018-12-11T21:35:11.099Z,68.64
2018-12-11T21:37:40.401Z,69.01
2018-12-11T21:40:12.138Z,70.50
2018-12-11T21:42:41.873Z,72.37
2018-12-11T21:45:11.272Z,71.65
2018-12-11T21:47:42.750Z,71.34
2018-12-11T21:50:13.295Z,73.68
2018-12-11T21:52:43.084Z,73.23
2018-12-11T21:55:11.651Z,72.15
2018-12-11T21:57:42.673Z,70.48
2018-12-11T22:00:11.891Z,68.35
2018-12-11T22:02:41.108Z,69.04
2018-12-11T22:05:11.392Z,68.55
2018-12-11T22:07:44.515Z,68.65
2018-12-11T22:10:14.978Z,70.07
2018-12-11T22:12:48.449Z,72.56
2018-12-11T22:15:19.175Z,71.92
2018-12-11T22:17:48.746Z,70.99
2018-12-11T22:20:18.170Z,69.91
2018-12-11T22:22:48.786Z,69.87
2018-12-11T22:25:19.326Z,69.09
2018-12-11T22:27:49.386Z,69.50
2018-12-11T22:30:18.584Z,68.95
2018-12-11T22:32:48.792Z,68.53
2018-12-11T22:35:19.148Z,69.78
2018-12-11T22:37:48.679Z,71.48
2018-12-11T22:40:20.918Z,72.49
2018-12-11T22:42:50.706Z,72.47
2018-12-11T22:45:20.238Z,72.24
2018-12-11T22:47:50.112Z,71.85
2018-12-11T22:50:21.091Z,70.21
2018-12-11T22:52:50.128Z,71.56
2018-12-11T22:55:20.462Z,70.42
2018-12-11T22:57:51.116Z,71.17
2018-12-11T23:00:21.453Z,72.63
2018-12-11T23:02:50.513Z,72.97
2018-12-11T23:05:20.867Z,73.53
2018-12-11T23:07:49.379Z,71.72
2018-12-11T23:10:19.088Z,72.65
2018-12-11T23:12:49.068Z,70.26
2018-12-11T23:15:18.677Z,71.15
2018-12-11T23:17:48.590Z,69.63
2018-12-11T23:20:17.941Z,69.27
2018-12-11T23:22:46.881Z,68.77
2018-12-11T23:25:17.889Z,66.50
2018-12-11T23:27:48.148Z,66.77
2018-12-11T23:30:32.463Z,68.32
2018-12-11T23:33:02.560Z,68.38
2018-12-11T23:35:31.323Z,68.40
2018-12-11T23:38:01.463Z,68.40
2018-12-11T23:40:31.707Z,69.90
2018-12-11T23:43:00.819Z,69.12
2018-12-11T23:45:30.573Z,67.47
2018-12-11T23:48:00.802Z,68.23
2018-12-11T23:50:29.701Z,69.62
2018-12-11T23:52:59.089Z,70.71
2018-12-11T23:55:28.815Z,71.31
2018-12-11T23:57:57.839Z,70.75
